Time;durP1;ratioP1;P1;durP2;ratioP2;P2;SDS_P1;SDS_P2;PMS_P1;PMS_P2;Temp;Humidity;BMP_temperature;BMP_pressure;BME280_temperature;BME280_humidity;BME280_pressure;Samples;Min_cycle;Max_cycle;Signal;HPM_P1;HPM_P2
2021/04/21 00:02:07;;;;;;;24.98;17.77;;;10.20;93.40;;;;;;5031396;28;20101;-79
2021/04/21 00:05:13;;;;;;;23.02;17.13;;;10.20;93.00;;;;;;5030419;28;20057;-80
2021/04/21 00:08:18;;;;;;;24.48;17.95;;;10.30;92.90;;;;;;5030499;28;20044;-79
2021/04/21 00:11:24;;;;;;;26.13;17.30;;;10.20;93.10;;;;;;5033287;28;20060;-80
2021/04/21 00:14:28;;;;;;;24.30;18.15;;;10.20;93.00;;;;;;5030463;28;20040;-80
2021/04/21 00:17:39;;;;;;;27.10;18.55;;;10.00;93.70;;;;;;5031166;28;20381;-80
2021/04/21 00:20:48;;;;;;;28.58;20.17;;;9.90;93.90;;;;;;5030847;28;20512;-79
2021/04/21 00:23:53;;;;;;;26.05;18.98;;;9.80;94.00;;;;;;5031127;28;20044;-79
2021/04/21 00:26:58;;;;;;;27.63;18.92;;;9.90;94.10;;;;;;5031250;28;20666;-79
2021/04/21 00:30:11;;;;;;;27.77;20.08;;;9.90;93.90;;;;;;5030318;28;20064;-79
2021/04/21 00:33:19;;;;;;;25.65;19.90;;;9.80;94.00;;;;;;5031194;28;20037;-80
2021/04/21 00:36:26;;;;;;;30.42;20.20;;;9.90;94.40;;;;;;5030960;28;20037;-80
2021/04/21 00:39:30;;;;;;;27.90;20.55;;;9.90;93.80;;;;;;5034678;28;20041;-80
2021/04/21 00:42:50;;;;;;;25.27;19.50;;;9.90;94.20;;;;;;5034945;28;20041;-80
2021/04/21 00:46:06;;;;;;;26.05;19.38;;;9.90;93.70;;;;;;5034588;28;20596;-79
2021/04/21 00:49:17;;;;;;;31.25;19.10;;;9.90;94.00;;;;;;5034711;28;20056;-79
2021/04/21 00:52:52;;;;;;;25.70;18.70;;;9.80;94.00;;;;;;5033666;28;20515;-80
2021/04/21 00:56:02;;;;;;;23.73;17.30;;;9.90;94.40;;;;;;5034889;28;20049;-80
2021/04/21 00:59:13;;;;;;;26.40;17.52;;;9.90;94.10;;;;;;5033554;28;20504;-79
2021/04/21 01:02:23;;;;;;;24.65;18.38;;;9.90;93.80;;;;;;5034626;28;20052;-80
2021/04/21 01:05:31;;;;;;;25.45;17.17;;;9.80;93.90;;;;;;5034428;28;20056;-80
2021/04/21 01:08:48;;;;;;;20.65;16.67;;;9.90;94.30;;;;;;5033643;28;20048;-78
2021/04/21 01:12:05;;;;;;;23.10;17.00;;;9.90;94.30;;;;;;5033313;28;20068;-79
2021/04/21 01:15:18;;;;;;;24.00;17.20;;;10.00;94.10;;;;;;5033459;28;20045;-79
2021/04/21 01:18:24;;;;;;;25.10;17.05;;;10.00;93.70;;;;;;5034459;28;20044;-80
2021/04/21 01:21:35;;;;;;;24.20;16.75;;;10.00;93.80;;;;;;5033201;28;20041;-79
2021/04/21 01:25:09;;;;;;;22.93;16.93;;;10.00;94.10;;;;;;5033922;28;20048;-80
2021/04/21 01:28:18;;;;;;;21.83;15.80;;;9.90;94.20;;;;;;4995775;28;20283;-79
2021/04/21 01:31:25;;;;;;;22.15;17.45;;;10.00;94.10;;;;;;5033927;28;20041;-79
2021/04/21 01:34:31;;;;;;;25.38;17.23;;;10.00;93.90;;;;;;5033828;28;20049;-79
2021/04/21 01:37:36;;;;;;;21.27;16.35;;;9.90;94.30;;;;;;5033975;28;20065;-79
2021/04/21 01:40:45;;;;;;;23.50;17.10;;;10.00;94.30;;;;;;5033500;28;20041;-79
2021/04/21 01:44:01;;;;;;;25.02;18.17;;;10.00;94.00;;;;;;5033928;28;20052;-79
2021/04/21 01:47:07;;;;;;;23.45;17.08;;;10.00;94.00;;;;;;5033553;28;20050;-79
2021/04/21 01:50:16;;;;;;;24.50;17.65;;;10.00;94.20;;;;;;5032757;28;20080;-79
2021/04/21 01:53:41;;;;;;;21.98;16.33;;;10.10;94.10;;;;;;5033560;28;20045;-79
2021/04/21 01:57:01;;;;;;;23.92;15.18;;;10.10;93.90;;;;;;5033673;28;20048;-79
2021/04/21 02:00:26;;;;;;;24.35;17.40;;;10.10;93.80;;;;;;5032701;28;20048;-79
2021/04/21 02:03:45;;;;;;;24.27;17.00;;;10.10;93.80;;;;;;5032337;28;20056;-79
2021/04/21 02:07:00;;;;;;;21.85;16.63;;;10.00;94.40;;;;;;5036098;28;20060;-79
2021/04/21 02:10:27;;;;;;;20.55;15.93;;;10.00;94.30;;;;;;5032339;28;20036;-80
2021/04/21 02:13:59;;;;;;;22.50;15.80;;;10.10;93.80;;;;;;5033006;28;20048;-80
2021/04/21 02:17:26;;;;;;;;;;;10.00;93.80;;;;;;5033747;28;20044;-79
2021/04/21 02:20:36;;;;;;;21.90;16.58;;;10.10;93.80;;;;;;5020812;28;19920;-79
2021/04/21 02:23:43;;;;;;;23.88;16.35;;;10.10;93.70;;;;;;5033051;28;20044;-80
2021/04/21 02:27:25;;;;;;;22.90;16.30;;;10.00;93.70;;;;;;5032041;28;20161;-79
2021/04/21 02:30:41;;;;;;;26.27;17.10;;;10.00;93.70;;;;;;5032869;28;20041;-80
2021/04/21 02:34:12;;;;;;;22.23;15.93;;;10.10;93.30;;;;;;5032904;28;20052;-79
2021/04/21 02:37:20;;;;;;;24.05;16.45;;;10.00;93.40;;;;;;5020254;28;20503;-80
2021/04/21 02:40:39;;;;;;;22.35;15.88;;;10.00;93.40;;;;;;5032744;28;20044;-79
2021/04/21 02:44:08;;;;;;;20.42;15.93;;;10.00;93.50;;;;;;5032409;28;20517;-81
2021/04/21 02:47:38;;;;;;;21.35;16.25;;;10.00;93.30;;;;;;5032382;28;20057;-79
2021/04/21 02:50:52;;;;;;;21.63;15.50;;;10.00;93.30;;;;;;5032374;28;20041;-79
2021/04/21 02:54:36;;;;;;;22.33;16.08;;;10.00;93.30;;;;;;5032485;28;20052;-79
2021/04/21 02:57:59;;;;;;;21.42;15.18;;;10.00;93.30;;;;;;5032374;28;20040;-79
2021/04/21 03:01:23;;;;;;;27.13;14.82;;;10.00;93.30;;;;;;5030505;28;20369;-78
2021/04/21 03:04:54;;;;;;;22.33;14.30;;;10.20;93.20;;;;;;5032233;28;20053;-80
2021/04/21 03:08:21;;;;;;;19.05;15.55;;;10.20;92.80;;;;;;5032249;28;20048;-80
2021/04/21 03:11:30;;;;;;;19.75;15.00;;;10.20;92.60;;;;;;5031970;28;20057;-80
2021/04/21 03:14:35;;;;;;;23.38;15.38;;;10.30;92.60;;;;;;5032220;28;20654;-79
2021/04/21 03:17:42;;;;;;;21.70;14.73;;;10.30;92.40;;;;;;5031761;28;20044;-79
2021/04/21 03:20:59;;;;;;;26.08;15.90;;;10.20;92.40;;;;;;5031814;28;20088;-80
2021/04/21 03:24:21;;;;;;;22.27;14.73;;;10.20;92.30;;;;;;5031929;28;20056;-79
2021/04/21 03:27:30;;;;;;;19.30;14.32;;;10.00;92.80;;;;;;5030912;28;20507;-79
2021/04/21 03:30:36;;;;;;;19.77;14.73;;;10.10;92.90;;;;;;5031892;28;20036;-80
2021/04/21 03:33:47;;;;;;;21.95;15.60;;;10.10;92.70;;;;;;5031974;28;20061;-80
2021/04/21 03:36:52;;;;;;;;;;;9.90;92.80;;;;;;5032335;28;20048;-80
2021/04/21 03:39:57;;;;;;;17.88;14.73;;;9.80;93.30;;;;;;5031559;28;19916;-80
2021/04/21 03:43:03;;;;;;;20.58;15.85;;;9.80;93.40;;;;;;5031691;28;20044;-80
2021/04/21 03:46:08;;;;;;;22.45;14.98;;;9.60;93.70;;;;;;5031406;28;20065;-79
2021/04/21 03:49:12;;;;;;;24.38;16.42;;;9.60;94.10;;;;;;5031460;28;20044;-80
2021/04/21 03:52:18;;;;;;;22.13;16.23;;;9.60;93.90;;;;;;5031591;28;20052;-81
2021/04/21 03:55:22;;;;;;;21.92;15.23;;;9.50;94.30;;;;;;5030524;28;20051;-80
2021/04/21 03:58:31;;;;;;;21.33;15.93;;;9.30;94.50;;;;;;5031290;28;20500;-79
2021/04/21 04:01:41;;;;;;;20.67;16.10;;;9.30;95.20;;;;;;5031420;28;20036;-78
2021/04/21 04:04:51;;;;;;;22.75;16.52;;;9.50;94.60;;;;;;5031387;28;20072;-80
2021/04/21 04:08:00;;;;;;;23.23;16.38;;;9.30;94.50;;;;;;5031339;28;20389;-79
2021/04/21 04:11:06;;;;;;;22.88;16.73;;;9.20;94.90;;;;;;5031133;28;20060;-80
2021/04/21 04:14:27;;;;;;;23.98;16.65;;;9.20;95.00;;;;;;5031182;28;20049;-80
2021/04/21 04:17:34;;;;;;;25.10;16.08;;;9.10;95.00;;;;;;5031395;28;20048;-80
2021/04/21 04:20:40;;;;;;;24.55;16.77;;;9.00;95.30;;;;;;5031416;28;20044;-80
2021/04/21 04:23:45;;;;;;;23.13;15.10;;;9.00;95.60;;;;;;5031221;28;20045;-80
2021/04/21 04:26:49;;;;;;;21.02;14.43;;;9.10;95.30;;;;;;5031013;28;20052;-78
2021/04/21 04:29:55;;;;;;;21.73;15.25;;;9.20;95.20;;;;;;5031284;28;20040;-79
2021/04/21 04:33:00;;;;;;;19.20;14.77;;;9.40;94.80;;;;;;5030848;28;20044;-80
2021/04/21 04:36:05;;;;;;;24.25;15.13;;;9.50;94.60;;;;;;5031123;28;20040;-80
2021/04/21 04:39:09;;;;;;;19.75;15.13;;;9.60;94.20;;;;;;5031089;28;20049;-79
2021/04/21 04:42:14;;;;;;;26.90;16.55;;;9.60;93.90;;;;;;5031102;28;20044;-80
2021/04/21 04:45:20;;;;;;;36.80;16.17;;;9.50;94.00;;;;;;5030791;28;20135;-79
2021/04/21 04:48:49;;;;;;;21.13;16.00;;;9.40;94.40;;;;;;5031123;28;20488;-79
2021/04/21 04:51:56;;;;;;;21.77;14.27;;;9.30;94.60;;;;;;5030943;28;20045;-80
2021/04/21 04:55:04;;;;;;;22.05;15.02;;;9.30;95.30;;;;;;5031191;28;20047;-80
2021/04/21 04:58:11;;;;;;;18.17;14.38;;;9.50;95.00;;;;;;5029976;28;20056;-81
2021/04/21 05:01:16;;;;;;;23.90;15.18;;;9.80;94.10;;;;;;5030804;28;20045;-80
2021/04/21 05:04:25;;;;;;;27.15;16.15;;;10.00;93.50;;;;;;5030790;28;20036;-78
2021/04/21 05:08:03;;;;;;;19.15;13.60;;;10.00;93.60;;;;;;5030535;28;20527;-80
2021/04/21 05:11:12;;;;;;;18.10;14.00;;;10.50;93.20;;;;;;5030547;28;20057;-79
2021/04/21 05:14:21;;;;;;;21.65;14.38;;;11.10;91.60;;;;;;5030578;28;20044;-80
2021/04/21 05:17:48;;;;;;;29.67;14.57;;;11.50;90.80;;;;;;5030698;28;20512;-79
2021/04/21 05:21:30;;;;;;;20.90;13.13;;;11.60;90.80;;;;;;5031051;28;20420;-84
2021/04/21 05:25:02;;;;;;;25.33;13.98;;;12.30;89.80;;;;;;5037690;28;20056;-86
2021/04/21 05:28:28;;;;;;;23.42;12.85;;;13.10;90.00;;;;;;5043686;28;20048;-84
2021/04/21 05:32:04;;;;;;;17.15;11.77;;;13.60;85.60;;;;;;5030898;28;20060;-85
2021/04/21 05:35:38;;;;;;;19.17;12.23;;;13.70;85.90;;;;;;5031245;28;20353;-87
2021/04/21 05:39:01;;;;;;;21.55;12.25;;;13.80;84.00;;;;;;5046734;28;20044;-85
2021/04/21 05:42:39;;;;;;;21.67;13.07;;;13.60;84.20;;;;;;5043531;28;20044;-79
2021/04/21 05:45:52;;;;;;;20.95;12.30;;;13.70;84.40;;;;;;5033407;28;20076;-72
2021/04/21 05:49:21;;;;;;;16.65;11.10;;;14.10;83.80;;;;;;5032975;28;20048;-73
2021/04/21 05:52:46;;;;;;;15.57;10.95;;;14.50;82.50;;;;;;5033345;28;20048;-73
2021/04/21 05:55:59;;;;;;;28.67;16.15;;;15.00;80.90;;;;;;5033847;28;20063;-71
2021/04/21 05:59:25;;;;;;;22.23;12.18;;;15.30;80.60;;;;;;5033527;28;20049;-72
2021/04/21 06:02:31;;;;;;;22.63;11.55;;;15.50;79.70;;;;;;5033664;28;20060;-77
2021/04/21 06:05:35;;;;;;;19.70;12.00;;;15.50;78.40;;;;;;5033359;28;20056;-78
2021/04/21 06:08:39;;;;;;;19.13;12.48;;;15.70;78.20;;;;;;5033194;28;20040;-75
2021/04/21 06:11:43;;;;;;;26.35;12.40;;;15.60;78.60;;;;;;5032286;28;20088;-75
2021/04/21 06:14:51;;;;;;;25.33;11.43;;;15.80;78.10;;;;;;5033204;28;20622;-73
2021/04/21 06:17:58;;;;;;;22.90;11.82;;;16.00;77.30;;;;;;5032738;28;20045;-78
2021/04/21 06:21:14;;;;;;;17.05;12.40;;;16.20;77.50;;;;;;5032796;28;20056;-77
2021/04/21 06:24:27;;;;;;;17.02;11.73;;;16.20;76.40;;;;;;5031735;28;20045;-76
2021/04/21 06:27:31;;;;;;;14.40;11.98;;;16.10;78.10;;;;;;5032834;28;20052;-75
2021/04/21 06:30:39;;;;;;;16.38;11.25;;;16.30;76.80;;;;;;5032789;28;20065;-75
2021/04/21 06:33:44;;;;;;;14.40;11.00;;;16.30;77.00;;;;;;5031751;28;20045;-79
2021/04/21 06:36:57;;;;;;;18.85;11.55;;;16.40;76.70;;;;;;5032052;28;20495;-75
2021/04/21 06:40:04;;;;;;;14.57;10.77;;;16.50;77.90;;;;;;5032725;28;20045;-72
2021/04/21 06:43:09;;;;;;;21.92;15.10;;;16.70;76.90;;;;;;5031906;28;20048;-74
2021/04/21 06:46:18;;;;;;;16.17;9.80;;;16.90;76.30;;;;;;5032430;28;20124;-72
2021/04/21 06:49:22;;;;;;;14.98;10.65;;;17.00;74.60;;;;;;5032495;28;20044;-73
2021/04/21 06:52:38;;;;;;;11.48;9.85;;;17.10;74.00;;;;;;5032412;28;20048;-72
2021/04/21 06:55:41;;;;;;;13.38;8.93;;;17.00;74.30;;;;;;5031616;28;20045;-75
2021/04/21 06:58:45;;;;;;;11.68;8.55;;;17.00;72.80;;;;;;5032459;28;20048;-77
2021/04/21 07:01:50;;;;;;;20.90;9.15;;;17.00;72.90;;;;;;5032178;28;20048;-74
2021/04/21 07:04:54;;;;;;;12.88;8.70;;;17.20;72.40;;;;;;5031870;28;20044;-70
2021/04/21 07:08:03;;;;;;;12.48;8.82;;;17.50;71.10;;;;;;5031730;28;20052;-75
2021/04/21 07:11:11;;;;;;;10.90;8.82;;;17.40;70.50;;;;;;5031203;28;20060;-73
2021/04/21 07:14:20;;;;;;;14.45;9.35;;;17.40;70.80;;;;;;5031906;28;20044;-75
2021/04/21 07:17:24;;;;;;;21.40;11.35;;;17.80;71.40;;;;;;5030958;28;20049;-75
2021/04/21 07:20:29;;;;;;;14.55;9.60;;;18.00;69.20;;;;;;5031810;28;20036;-74
2021/04/21 07:23:37;;;;;;;12.18;7.80;;;18.10;68.80;;;;;;5031196;28;20037;-72
2021/04/21 07:26:44;;;;;;;15.23;8.75;;;18.20;69.90;;;;;;5030552;28;20056;-80
2021/04/21 07:29:48;;;;;;;9.38;7.93;;;18.60;68.50;;;;;;5031597;28;20048;-73
2021/04/21 07:32:53;;;;;;;10.63;7.60;;;19.10;66.70;;;;;;5031611;28;20044;-73
2021/04/21 07:36:17;;;;;;;11.68;7.50;;;19.40;65.70;;;;;;5030452;28;20045;-73
2021/04/21 07:39:29;;;;;;;8.70;6.85;;;19.70;64.60;;;;;;5031537;28;20429;-73
2021/04/21 07:42:34;;;;;;;13.00;7.15;;;19.40;63.80;;;;;;5031698;28;20040;-73
2021/04/21 07:45:44;;;;;;;12.70;7.35;;;18.90;64.30;;;;;;5031518;28;20072;-72
2021/04/21 07:48:50;;;;;;;8.07;6.03;;;18.70;66.70;;;;;;5031095;28;20041;-73
2021/04/21 07:51:54;;;;;;;12.52;6.13;;;18.70;65.30;;;;;;5031842;28;20108;-72
2021/04/21 07:55:14;;;;;;;7.03;5.82;;;18.80;64.70;;;;;;5031672;28;20499;-74
2021/04/21 07:58:23;;;;;;;7.50;5.43;;;19.10;63.00;;;;;;5031635;28;20048;-74
2021/04/21 08:01:34;;;;;;;16.95;6.80;;;19.50;59.70;;;;;;5030751;28;20037;-73
2021/04/21 08:04:49;;;;;;;28.65;7.70;;;19.70;60.00;;;;;;5030801;28;20044;-74
2021/04/21 08:07:56;;;;;;;9.32;6.88;;;19.70;58.10;;;;;;5030713;28;20052;-71
2021/04/21 08:11:01;;;;;;;12.95;6.40;;;19.70;59.20;;;;;;5031537;28;20057;-76
2021/04/21 08:14:05;;;;;;;9.05;7.03;;;19.70;59.20;;;;;;5019192;28;20037;-73
2021/04/21 08:17:11;;;;;;;10.93;7.55;;;19.50;60.90;;;;;;5032106;28;20048;-73
2021/04/21 08:20:45;;;;;;;13.38;8.13;;;19.70;61.30;;;;;;5031397;28;20548;-75
2021/04/21 08:23:59;;;;;;;12.73;7.20;;;20.00;59.20;;;;;;5033669;28;20496;-73
2021/04/21 08:27:05;;;;;;;10.65;7.15;;;20.30;59.20;;;;;;5029418;28;20552;-72
2021/04/21 08:30:09;;;;;;;10.30;7.13;;;20.50;58.80;;;;;;5029810;28;20048;-73
2021/04/21 08:33:13;;;;;;;14.70;7.65;;;20.60;58.20;;;;;;5030738;28;20064;-75
2021/04/21 08:36:19;;;;;;;10.30;7.53;;;20.70;58.10;;;;;;5029819;28;20616;-71
2021/04/21 08:39:23;;;;;;;12.68;8.48;;;20.70;57.70;;;;;;5031027;28;20044;-73
2021/04/21 08:42:30;;;;;;;12.98;9.45;;;20.70;56.40;;;;;;5031047;28;20045;-71
2021/04/21 08:45:35;;;;;;;11.25;7.07;;;20.20;58.00;;;;;;5030714;28;20068;-74
2021/04/21 08:48:41;;;;;;;16.17;10.32;;;20.30;59.90;;;;;;5031018;28;20049;-71
2021/04/21 08:51:46;;;;;;;12.10;7.50;;;20.40;58.70;;;;;;5031251;28;20109;-74
2021/04/21 08:54:54;;;;;;;9.48;7.50;;;20.40;60.40;;;;;;5031197;28;20052;-74
2021/04/21 08:58:00;;;;;;;9.93;8.65;;;20.60;59.10;;;;;;5029912;28;20048;-80
2021/04/21 09:01:04;;;;;;;16.23;8.60;;;20.80;58.00;;;;;;5034192;28;20048;-72
2021/04/21 09:04:08;;;;;;;12.32;9.40;;;20.90;56.10;;;;;;5033881;28;20060;-76
2021/04/21 09:07:14;;;;;;;21.65;11.38;;;20.40;57.10;;;;;;5034390;28;20052;-72
2021/04/21 09:10:19;;;;;;;9.90;8.10;;;19.80;59.10;;;;;;5034323;28;20542;-76
2021/04/21 09:13:23;;;;;;;17.48;10.60;;;19.50;61.30;;;;;;5034267;28;20041;-72
2021/04/21 09:16:27;;;;;;;23.02;12.07;;;19.60;60.40;;;;;;5034634;28;20411;-73
2021/04/21 09:19:35;;;;;;;36.85;14.13;;;19.40;60.40;;;;;;5033973;28;20048;-74
2021/04/21 09:23:06;;;;;;;18.83;11.35;;;18.90;60.20;;;;;;5034266;28;20100;-73
2021/04/21 09:26:22;;;;;;;16.70;10.52;;;18.40;59.40;;;;;;5034324;28;20057;-75
2021/04/21 09:29:30;;;;;;;13.98;10.30;;;18.00;60.30;;;;;;5033415;28;20057;-74
2021/04/21 09:32:43;;;;;;;11.80;9.48;;;18.20;60.10;;;;;;5032153;28;20044;-72
2021/04/21 09:35:48;;;;;;;13.82;8.73;;;18.30;58.30;;;;;;5033799;28;20503;-73
2021/04/21 09:38:52;;;;;;;11.95;8.88;;;18.20;57.80;;;;;;5033631;28;20635;-73
2021/04/21 09:42:01;;;;;;;12.93;9.30;;;18.10;57.80;;;;;;5033496;28;20048;-73
2021/04/21 09:45:07;;;;;;;12.90;8.45;;;17.80;57.80;;;;;;5033072;28;20045;-72
2021/04/21 09:48:14;;;;;;;14.02;7.93;;;17.80;58.00;;;;;;5033900;28;20076;-74
2021/04/21 09:51:23;;;;;;;46.70;9.02;;;18.00;57.10;;;;;;5021417;28;20052;-71
2021/04/21 09:54:36;;;;;;;15.50;8.57;;;18.30;56.30;;;;;;5032084;28;20060;-72
2021/04/21 09:57:40;;;;;;;11.95;8.43;;;18.50;55.60;;;;;;5031608;28;20045;-71
2021/04/21 10:00:57;;;;;;;12.52;8.73;;;18.70;55.70;;;;;;5033803;28;20044;-72
2021/04/21 10:04:19;;;;;;;11.10;7.65;;;18.80;55.80;;;;;;5032806;28;20504;-73
2021/04/21 10:07:22;;;;;;;15.20;9.93;;;19.10;56.40;;;;;;5033128;28;20052;-72
2021/04/21 10:10:27;;;;;;;21.00;8.43;;;19.30;53.90;;;;;;5033007;28;20064;-71
2021/04/21 10:13:47;;;;;;;10.30;8.82;;;19.40;54.00;;;;;;5032542;28;20045;-72
2021/04/21 10:16:51;;;;;;;11.80;7.60;;;19.40;53.60;;;;;;5033491;28;20120;-72
2021/04/21 10:19:58;;;;;;;8.88;6.97;;;19.60;53.30;;;;;;5033219;28;20036;-72
2021/04/21 10:23:05;;;;;;;10.63;7.22;;;19.70;53.30;;;;;;5032200;28;20420;-70
2021/04/21 10:26:11;;;;;;;9.27;7.57;;;19.90;54.00;;;;;;5031716;28;20128;-72
2021/04/21 10:29:15;;;;;;;11.52;9.07;;;19.80;54.00;;;;;;5032935;28;20052;-72
2021/04/21 10:32:20;;;;;;;11.57;9.73;;;19.80;52.60;;;;;;5033425;28;20060;-71
2021/04/21 10:35:24;;;;;;;14.38;9.45;;;19.60;52.70;;;;;;5033343;28;20052;-72
2021/04/21 10:38:29;;;;;;;14.95;8.93;;;19.20;53.10;;;;;;5033012;28;20074;-72
2021/04/21 10:41:39;;;;;;;11.90;8.70;;;19.00;54.10;;;;;;5032840;28;20512;-74
2021/04/21 10:44:45;;;;;;;12.68;8.63;;;19.10;55.30;;;;;;5032308;28;20500;-70
2021/04/21 10:47:51;;;;;;;10.82;8.93;;;19.40;56.70;;;;;;5032220;28;20068;-72
2021/04/21 10:50:55;;;;;;;16.00;10.32;;;19.50;57.50;;;;;;5032427;28;20044;-72
2021/04/21 10:54:01;;;;;;;15.70;9.98;;;19.60;58.00;;;;;;5031499;28;20040;-72
2021/04/21 10:57:32;;;;;;;11.32;7.88;;;19.80;59.60;;;;;;5031493;28;20409;-72
2021/04/21 11:00:38;;;;;;;13.45;9.02;;;19.90;59.80;;;;;;5033454;28;20496;-72
2021/04/21 11:03:44;;;;;;;15.73;8.75;;;20.00;59.70;;;;;;5032502;28;20373;-71
2021/04/21 11:06:48;;;;;;;10.90;8.27;;;20.00;60.20;;;;;;5031024;28;20523;-74
2021/04/21 11:09:53;;;;;;;12.32;10.35;;;20.10;59.80;;;;;;5031948;28;20041;-69
2021/04/21 11:12:59;;;;;;;13.80;11.27;;;20.10;59.90;;;;;;5032061;28;20052;-71
2021/04/21 11:16:29;;;;;;;8.45;7.60;;;20.20;58.70;;;;;;5031858;28;20666;-73
2021/04/21 11:19:45;;;;;;;11.73;7.32;;;20.10;58.90;;;;;;5031408;28;20037;-72
2021/04/21 11:22:49;;;;;;;11.10;7.78;;;20.10;60.20;;;;;;5031407;28;20048;-73
2021/04/21 11:25:53;;;;;;;12.90;8.00;;;20.10;59.60;;;;;;5032025;28;20049;-73
2021/04/21 11:29:11;;;;;;;14.70;8.25;;;20.10;59.10;;;;;;5031441;28;20045;-72
2021/04/21 11:32:17;;;;;;;13.60;8.63;;;20.10;58.50;;;;;;5031742;28;20044;-72
2021/04/21 11:35:31;;;;;;;12.25;8.50;;;19.90;58.10;;;;;;5031777;28;20037;-72
2021/04/21 11:38:42;;;;;;;13.13;8.20;;;19.90;58.60;;;;;;5031968;28;20049;-73
2021/04/21 11:41:48;;;;;;;73.28;54.15;;;19.90;59.10;;;;;;5031071;28;20512;-75
2021/04/21 11:45:00;;;;;;;17.15;12.15;;;19.90;56.90;;;;;;5031142;28;20112;-79
2021/04/21 11:48:04;;;;;;;15.00;8.70;;;19.80;61.50;;;;;;5032080;28;20056;-82
2021/04/21 11:51:16;;;;;;;13.40;9.23;;;19.90;61.20;;;;;;5031833;28;20048;-75
2021/04/21 11:54:20;;;;;;;;;;;20.00;59.20;;;;;;5032234;28;20052;-76
2021/04/21 11:57:24;;;;;;;12.10;9.50;;;20.00;57.70;;;;;;5031768;28;19916;-76
2021/04/21 12:00:34;;;;;;;23.90;17.65;;;19.90;56.60;;;;;;5031467;28;20052;-75
2021/04/21 12:03:45;;;;;;;13.23;9.40;;;19.80;58.40;;;;;;5029897;28;20068;-74
2021/04/21 12:06:49;;;;;;;13.20;10.70;;;19.90;58.20;;;;;;5029985;28;20056;-72
2021/04/21 12:09:58;;;;;;;17.90;11.52;;;19.90;57.50;;;;;;5029818;28;20271;-76
2021/04/21 12:13:24;;;;;;;13.98;9.32;;;19.90;57.20;;;;;;5031031;28;20037;-78
2021/04/21 12:16:29;;;;;;;13.45;8.55;;;19.90;56.80;;;;;;5031191;28;20056;-72
2021/04/21 12:19:33;;;;;;;9.60;6.72;;;19.90;57.80;;;;;;5031228;28;20151;-72
2021/04/21 12:22:42;;;;;;;8.82;7.18;;;20.00;58.70;;;;;;5030085;28;20049;-72
2021/04/21 12:25:46;;;;;;;9.32;7.72;;;20.10;58.40;;;;;;5030334;28;20052;-72
2021/04/21 12:28:55;;;;;;;11.13;7.43;;;20.20;57.60;;;;;;5030388;28;20052;-69
2021/04/21 12:32:05;;;;;;;9.45;6.47;;;20.20;57.50;;;;;;5030356;28;20488;-74
2021/04/21 12:35:12;;;;;;;10.88;6.50;;;20.20;57.80;;;;;;5023155;28;20068;-75
2021/04/21 12:38:25;;;;;;;17.33;6.68;;;20.20;58.80;;;;;;5034936;28;20045;-76
2021/04/21 12:41:29;;;;;;;14.40;6.88;;;20.20;58.00;;;;;;5034875;28;20037;-72
2021/04/21 12:44:40;;;;;;;12.10;6.20;;;20.20;58.20;;;;;;5035575;28;20052;-76
2021/04/21 12:47:45;;;;;;;12.68;6.03;;;20.20;57.50;;;;;;5034034;28;20056;-75
2021/04/21 12:50:51;;;;;;;16.75;12.27;;;20.20;58.70;;;;;;5034273;28;20499;-76
2021/04/21 12:53:57;;;;;;;8.25;5.88;;;20.20;57.00;;;;;;5035108;28;20045;-72
2021/04/21 12:57:03;;;;;;;6.93;5.35;;;20.10;57.00;;;;;;5022682;28;20117;-74
2021/04/21 13:00:07;;;;;;;7.47;5.22;;;20.00;58.30;;;;;;5034700;28;20036;-74
2021/04/21 13:03:18;;;;;;;8.45;5.03;;;20.10;56.90;;;;;;5034992;28;20040;-73
2021/04/21 13:06:39;;;;;;;14.38;5.90;;;20.10;55.60;;;;;;5034651;28;20057;-71
2021/04/21 13:09:44;;;;;;;21.88;5.47;;;20.10;55.40;;;;;;5034676;28;20044;-75
2021/04/21 13:13:01;;;;;;;7.03;4.35;;;20.00;54.80;;;;;;5034270;28;20053;-78
2021/04/21 13:16:06;;;;;;;9.02;4.65;;;20.00;55.00;;;;;;5034651;28;20048;-71
2021/04/21 13:19:30;;;;;;;4.68;3.83;;;20.10;54.70;;;;;;5033398;28;20047;-74
2021/04/21 13:22:36;;;;;;;7.28;3.85;;;20.00;54.00;;;;;;5034479;28;20048;-74
2021/04/21 13:26:16;;;;;;;7.60;4.28;;;20.10;53.40;;;;;;5034375;28;20049;-70
2021/04/21 13:29:36;;;;;;;11.48;4.47;;;20.10;52.70;;;;;;4976793;28;20050;-73
2021/04/21 13:32:51;;;;;;;6.40;3.83;;;20.00;51.50;;;;;;5034013;28;20401;-72
2021/04/21 13:35:56;;;;;;;10.48;4.63;;;20.00;52.40;;;;;;5033784;28;20040;-75
2021/04/21 13:39:00;;;;;;;7.45;4.88;;;20.00;52.10;;;;;;5033875;28;20044;-73
2021/04/21 13:42:05;;;;;;;7.57;6.25;;;20.00;53.40;;;;;;5032614;28;20053;-76
2021/04/21 13:45:12;;;;;;;5.65;4.90;;;20.00;52.50;;;;;;5032967;28;20056;-73
2021/04/21 13:48:16;;;;;;;7.93;4.20;;;20.00;51.80;;;;;;5033611;28;20512;-74
2021/04/21 13:51:20;;;;;;;5.88;3.63;;;20.00;52.60;;;;;;5033804;28;20048;-69
2021/04/21 13:54:24;;;;;;;5.78;4.75;;;20.00;53.20;;;;;;5033446;28;20045;-69
2021/04/21 13:57:28;;;;;;;4.47;3.88;;;20.00;53.40;;;;;;5033638;28;20512;-70
2021/04/21 14:00:32;;;;;;;6.78;4.28;;;20.00;54.20;;;;;;5033340;28;20040;-69
2021/04/21 14:03:36;;;;;;;7.47;3.92;;;20.00;56.00;;;;;;5033176;28;20049;-70
2021/04/21 14:06:40;;;;;;;5.93;4.55;;;19.90;55.00;;;;;;5032954;28;20050;-69
2021/04/21 14:09:44;;;;;;;4.32;3.60;;;20.00;54.00;;;;;;5033258;28;20044;-69
2021/04/21 14:12:49;;;;;;;6.15;4.07;;;20.00;54.10;;;;;;5032985;28;20049;-69
2021/04/21 14:15:53;;;;;;;5.57;3.50;;;20.00;53.40;;;;;;5033444;28;20048;-69
2021/04/21 14:18:56;;;;;;;7.32;3.75;;;20.10;50.30;;;;;;5032305;28;20044;-69
2021/04/21 14:22:02;;;;;;;5.32;2.97;;;20.00;49.40;;;;;;5020980;28;20059;-68
2021/04/21 14:25:06;;;;;;;6.80;3.10;;;19.90;49.60;;;;;;5033127;28;20056;-69
2021/04/21 14:28:11;;;;;;;8.63;3.42;;;19.90;49.70;;;;;;5032738;28;20060;-69
2021/04/21 14:31:15;;;;;;;5.60;4.65;;;19.90;49.40;;;;;;5032867;28;20048;-69
2021/04/21 14:34:20;;;;;;;7.55;3.95;;;19.80;49.50;;;;;;5020648;28;20388;-71
2021/04/21 14:37:25;;;;;;;7.40;3.92;;;19.80;49.90;;;;;;5032019;28;20064;-72
2021/04/21 14:40:29;;;;;;;4.00;3.10;;;19.70;50.20;;;;;;5031918;28;20056;-74
2021/04/21 14:43:32;;;;;;;4.50;3.40;;;19.60;51.10;;;;;;5031919;28;20108;-75
2021/04/21 14:46:38;;;;;;;5.22;2.80;;;19.60;50.20;;;;;;5032716;28;20133;-72
2021/04/21 14:49:42;;;;;;;5.82;3.08;;;19.60;48.90;;;;;;5032338;28;20044;-72
2021/04/21 14:52:46;;;;;;;5.70;2.90;;;19.60;49.00;;;;;;5032467;28;20111;-71
2021/04/21 14:55:50;;;;;;;4.57;3.28;;;19.50;50.80;;;;;;5032248;28;20040;-72
2021/04/21 14:58:54;;;;;;;9.90;3.08;;;19.50;51.80;;;;;;5032530;28;20044;-73
2021/04/21 15:02:01;;;;;;;6.75;3.10;;;19.50;51.80;;;;;;5032523;28;20060;-72
2021/04/21 15:05:06;;;;;;;8.95;2.83;;;19.50;51.40;;;;;;5031609;28;20480;-75
2021/04/21 15:08:12;;;;;;;5.00;3.38;;;19.60;50.70;;;;;;5031913;28;20061;-75
2021/04/21 15:11:20;;;;;;;4.82;3.67;;;19.70;50.80;;;;;;5031281;28;20611;-74
2021/04/21 15:14:24;;;;;;;5.70;3.60;;;19.60;50.70;;;;;;5031899;28;20452;-73
2021/04/21 15:17:30;;;;;;;61.00;10.63;;;19.60;50.10;;;;;;5031645;28;20049;-73
2021/04/21 15:20:34;;;;;;;6.05;3.63;;;19.60;50.90;;;;;;5031665;28;20531;-72
2021/04/21 15:23:38;;;;;;;7.30;3.22;;;19.50;50.90;;;;;;5031526;28;20053;-70
2021/04/21 15:26:43;;;;;;;11.20;3.28;;;19.40;51.00;;;;;;5031433;28;20044;-72
2021/04/21 15:29:50;;;;;;;8.23;3.45;;;19.40;49.20;;;;;;5031424;28;20512;-71
2021/04/21 15:32:56;;;;;;;7.20;2.95;;;19.30;48.80;;;;;;5031629;28;20044;-71
2021/04/21 15:35:59;;;;;;;6.60;3.30;;;19.30;50.10;;;;;;5030434;28;20052;-71
2021/04/21 15:39:10;;;;;;;7.97;3.63;;;19.20;51.60;;;;;;5031297;28;20044;-70
2021/04/21 15:42:14;;;;;;;;;;;19.10;54.10;;;;;;5031711;28;20397;-71
2021/04/21 15:45:23;;;;;;;10.60;4.10;;;19.00;54.70;;;;;;5031526;28;19928;-73
2021/04/21 15:48:27;;;;;;;14.38;5.63;;;18.90;54.90;;;;;;5031274;28;20064;-74
2021/04/21 15:51:32;;;;;;;6.70;3.95;;;18.90;55.20;;;;;;5031680;28;20044;-72
2021/04/21 15:54:37;;;;;;;9.73;3.65;;;18.80;54.80;;;;;;5031369;28;20063;-71
2021/04/21 15:57:43;;;;;;;9.52;3.40;;;18.80;54.10;;;;;;5030560;28;20064;-69
2021/04/21 16:00:47;;;;;;;6.13;3.30;;;18.80;54.10;;;;;;5030592;28;20169;-73
2021/04/21 16:03:55;;;;;;;4.30;2.90;;;18.80;54.70;;;;;;5030822;28;20041;-72
2021/04/21 16:07:01;;;;;;;8.00;3.65;;;18.80;55.00;;;;;;5030864;28;20500;-70
2021/04/21 16:10:06;;;;;;;17.55;5.07;;;18.80;55.10;;;;;;5030749;28;20095;-69
2021/04/21 16:13:10;;;;;;;11.00;3.47;;;18.80;55.10;;;;;;5030766;28;20056;-72
2021/04/21 16:16:15;;;;;;;8.13;3.30;;;18.80;54.50;;;;;;5031204;28;20044;-71
2021/04/21 16:19:19;;;;;;;6.90;3.08;;;18.80;54.90;;;;;;5030941;28;20041;-70